Aeroporto :
LOGIN :

Iscrizione | Disclaimer

   EN    FR    IT 

 










Sommario :    VFR   VFR Marginale   IFR   IFR Intensivo   IFR Molto Intensivo
Visibilità : 
Base nubi : 
>= 8 km
>= 3000ft
5 / 8 km
1000 / 3000 ft
1500m / 5 km
500 / 1000 ft
800 / 1500m
200 / 500 ft
< 800m
< 200 ft
Simboli :   Temporali  Nebbia  Neve Forte  Precipitazioni Forti  Vento > 20 kt
SIGMETs :   Varie  Temporali  Ghiacco  Turbolenza  Onda orograficha  Ceneri Vulcaniche







- Altitudine del aeroporto : 357 ft
- Codice IATA : TUF
- Carte del aeroporto


LFOT - Tours

ULTIMO METAR :
  • 161430Z AUTO VRB03KT 9999 BKN037 20/13 Q1018 NOSIG

METARs OBSOLETI :
  • 161400Z AUTO 21005KT 180V240 9999 OVC039 19/13 Q1018 NOSIG
  • 161330Z AUTO 22007KT 180V250 9999 OVC034 20/13 Q1018 NOSIG
  • 161300Z AUTO 22005KT 180V270 9999 OVC034 20/13 Q1018 NOSIG
  • 161230Z AUTO 24005KT 190V280 9999 OVC036 20/13 Q1018 NOSIG
  • 161200Z AUTO VRB02KT 9999 OVC042 19/13 Q1018 NOSIG

TAF TAF LFOT
Valido dal 16 a 12 ore il 17 a 12 ore UTC


161100Z 1612/1712 27005KT CAVOK
PROB30
TEMPO 1702/1708 VRB03KT 3000 BR
Nessun NOTAM noto per questo aeroporto.



MetMap, La meteo Aeronautica in un colpo d'occhio ! - Copyright ORBIFLY Dicembre 2007 - Disclaimer

ORBIFLY MET'MAP TEAM :

Programmazione e sviluppo : Alexandra Zaïnal
Concezione e sviluppo : Baudouin d'Aumeries
Co-Programmazione e sviluppo : Marc-Olivier Méhu
Supporto tecnico e logistico : Manuel Goepfert
Aiuto per la traduzione : Arnaldo La Scala

Contatto : metmap@orbifly.com




FONTI E CREDITI :

   NOAA